sensor_id;sensor_type;location;lat;lon;timestamp;pressure;altitude;pressure_sealevel;temperature;humidity
34658;BME280;20865;43.312;27.152;2023-02-16T00:01:47;101945.34;;;6.04;38.39
34658;BME280;20865;43.312;27.152;2023-02-16T00:04:25;101939.49;;;5.98;37.83
34658;BME280;20865;43.312;27.152;2023-02-16T00:06:49;101944.36;;;5.99;37.84
34658;BME280;20865;43.312;27.152;2023-02-16T00:09:18;101938.61;;;5.98;37.94
34658;BME280;20865;43.312;27.152;2023-02-16T00:11:46;101938.55;;;5.93;37.88
34658;BME280;20865;43.312;27.152;2023-02-16T00:14:34;101937.63;;;5.92;37.54
34658;BME280;20865;43.312;27.152;2023-02-16T00:17:02;101929.42;;;5.79;37.55
34658;BME280;20865;43.312;27.152;2023-02-16T00:19:35;101932.45;;;5.72;37.55
34658;BME280;20865;43.312;27.152;2023-02-16T00:22:05;101928.91;;;5.73;37.66
34658;BME280;20865;43.312;27.152;2023-02-16T00:24:33;101940.02;;;5.76;37.86
34658;BME280;20865;43.312;27.152;2023-02-16T00:27:01;101938.69;;;5.76;38.30
34658;BME280;20865;43.312;27.152;2023-02-16T00:29:35;101936.48;;;5.77;38.50
34658;BME280;20865;43.312;27.152;2023-02-16T00:32:04;101935.55;;;5.74;38.57
34658;BME280;20865;43.312;27.152;2023-02-16T00:34:34;101938.54;;;5.68;38.74
34658;BME280;20865;43.312;27.152;2023-02-16T00:37:05;101938.80;;;5.55;38.89
34658;BME280;20865;43.312;27.152;2023-02-16T00:39:34;101938.63;;;5.46;38.99
34658;BME280;20865;43.312;27.152;2023-02-16T00:42:04;101937.30;;;5.44;38.84
34658;BME280;20865;43.312;27.152;2023-02-16T00:44:35;101937.25;;;5.43;38.80
34658;BME280;20865;43.312;27.152;2023-02-16T00:49:44;101929.41;;;5.49;38.60
34658;BME280;20865;43.312;27.152;2023-02-16T00:52:38;101928.08;;;5.47;38.54
34658;BME280;20865;43.312;27.152;2023-02-16T00:55:19;101925.92;;;5.52;38.55
34658;BME280;20865;43.312;27.152;2023-02-16T00:58:02;101930.34;;;5.51;38.38
34658;BME280;20865;43.312;27.152;2023-02-16T01:00:38;101934.77;;;5.52;38.42
34658;BME280;20865;43.312;27.152;2023-02-16T01:03:10;101922.28;;;5.45;38.09
34658;BME280;20865;43.312;27.152;2023-02-16T01:05:37;101920.58;;;5.50;37.99
34658;BME280;20865;43.312;27.152;2023-02-16T01:08:14;101922.77;;;5.47;37.95
34658;BME280;20865;43.312;27.152;2023-02-16T01:10:56;101919.59;;;5.43;38.08
34658;BME280;20865;43.312;27.152;2023-02-16T01:13:47;101914.27;;;5.42;37.66
34658;BME280;20865;43.312;27.152;2023-02-16T01:16:20;101921.28;;;5.38;37.76
34658;BME280;20865;43.312;27.152;2023-02-16T01:18:48;101922.16;;;5.37;37.73
34658;BME280;20865;43.312;27.152;2023-02-16T01:21:16;101925.58;;;5.32;37.98
34658;BME280;20865;43.312;27.152;2023-02-16T01:23:44;101922.54;;;5.34;38.23
34658;BME280;20865;43.312;27.152;2023-02-16T01:26:15;101923.38;;;5.33;38.53
34658;BME280;20865;43.312;27.152;2023-02-16T01:28:43;101916.80;;;5.34;38.66
34658;BME280;20865;43.312;27.152;2023-02-16T01:31:12;101923.87;;;5.34;38.58
34658;BME280;20865;43.312;27.152;2023-02-16T01:33:41;101919.51;;;5.37;38.53
34658;BME280;20865;43.312;27.152;2023-02-16T01:36:22;101918.63;;;5.38;38.57
34658;BME280;20865;43.312;27.152;2023-02-16T01:38:50;101917.23;;;5.34;38.51
34658;BME280;20865;43.312;27.152;2023-02-16T01:44:15;101911.45;;;5.33;38.25
34658;BME280;20865;43.312;27.152;2023-02-16T01:49:38;101909.61;;;5.27;38.23
34658;BME280;20865;43.312;27.152;2023-02-16T01:52:24;101906.52;;;5.28;38.18
34658;BME280;20865;43.312;27.152;2023-02-16T01:54:53;101909.00;;;5.18;38.25
34658;BME280;20865;43.312;27.152;2023-02-16T01:57:44;101905.97;;;5.22;38.35
34658;BME280;20865;43.312;27.152;2023-02-16T02:00:27;101905.91;;;5.19;38.25
34658;BME280;20865;43.312;27.152;2023-02-16T02:02:57;101908.10;;;5.16;37.92
34658;BME280;20865;43.312;27.152;2023-02-16T02:05:30;101905.79;;;5.11;37.79
34658;BME280;20865;43.312;27.152;2023-02-16T02:08:22;101909.96;;;4.98;37.79
34658;BME280;20865;43.312;27.152;2023-02-16T02:13:44;101903.33;;;4.97;37.89
34658;BME280;20865;43.312;27.152;2023-02-16T02:16:12;101901.80;;;4.86;38.39
34658;BME280;20865;43.312;27.152;2023-02-16T02:18:40;101905.33;;;4.85;38.00
34658;BME280;20865;43.312;27.152;2023-02-16T02:27:12;101900.30;;;4.77;38.89
34658;BME280;20865;43.312;27.152;2023-02-16T02:29:42;101902.51;;;4.77;38.88
34658;BME280;20865;43.312;27.152;2023-02-16T02:38:11;101902.13;;;4.80;38.58
34658;BME280;20865;43.312;27.152;2023-02-16T02:43:44;101898.01;;;4.72;37.92
34658;BME280;20865;43.312;27.152;2023-02-16T02:46:32;101898.77;;;4.66;38.01
34658;BME280;20865;43.312;27.152;2023-02-16T02:49:00;101901.34;;;4.62;37.94
34658;BME280;20865;43.312;27.152;2023-02-16T02:51:28;101890.36;;;4.64;37.86
34658;BME280;20865;43.312;27.152;2023-02-16T02:54:13;101895.99;;;4.60;38.08
34658;BME280;20865;43.312;27.152;2023-02-16T02:57:05;101899.08;;;4.60;38.06
34658;BME280;20865;43.312;27.152;2023-02-16T03:00:05;101896.80;;;4.56;37.77
34658;BME280;20865;43.312;27.152;2023-02-16T03:02:58;101904.23;;;4.52;38.00
34658;BME280;20865;43.312;27.152;2023-02-16T03:05:23;101902.69;;;4.41;38.22
34658;BME280;20865;43.312;27.152;2023-02-16T03:07:54;101903.12;;;4.41;38.56
34658;BME280;20865;43.312;27.152;2023-02-16T03:10:25;101907.16;;;4.44;38.63
34658;BME280;20865;43.312;27.152;2023-02-16T03:13:27;101907.59;;;4.43;38.59
34658;BME280;20865;43.312;27.152;2023-02-16T03:15:55;101903.20;;;4.45;38.34
34658;BME280;20865;43.312;27.152;2023-02-16T03:18:25;101902.25;;;4.42;38.13
34658;BME280;20865;43.312;27.152;2023-02-16T03:21:15;101904.00;;;4.40;37.93
34658;BME280;20865;43.312;27.152;2023-02-16T03:24:02;101907.90;;;4.37;37.68
34658;BME280;20865;43.312;27.152;2023-02-16T03:26:49;101911.44;;;4.37;37.78
34658;BME280;20865;43.312;27.152;2023-02-16T03:29:36;101911.28;;;4.29;37.98
34658;BME280;20865;43.312;27.152;2023-02-16T03:32:06;101910.77;;;4.27;37.79
34658;BME280;20865;43.312;27.152;2023-02-16T03:34:35;101905.48;;;4.27;37.87
34658;BME280;20865;43.312;27.152;2023-02-16T03:37:04;101905.03;;;4.26;37.97
34658;BME280;20865;43.312;27.152;2023-02-16T03:39:32;101911.23;;;4.28;38.01
34658;BME280;20865;43.312;27.152;2023-02-16T03:42:02;101916.50;;;4.26;37.95
34658;BME280;20865;43.312;27.152;2023-02-16T03:44:30;101914.74;;;4.27;37.95
34658;BME280;20865;43.312;27.152;2023-02-16T03:46:57;101908.93;;;4.23;37.74
34658;BME280;20865;43.312;27.152;2023-02-16T03:49:25;101909.30;;;4.19;37.40
34658;BME280;20865;43.312;27.152;2023-02-16T03:51:52;101912.73;;;4.15;37.70
34658;BME280;20865;43.312;27.152;2023-02-16T03:54:20;101911.73;;;4.10;37.95
34658;BME280;20865;43.312;27.152;2023-02-16T03:56:47;101905.19;;;4.13;38.23
34658;BME280;20865;43.312;27.152;2023-02-16T03:59:15;101911.81;;;4.15;38.36
34658;BME280;20865;43.312;27.152;2023-02-16T04:01:46;101912.30;;;4.16;38.64
34658;BME280;20865;43.312;27.152;2023-02-16T04:04:13;101912.23;;;4.13;38.55
34658;BME280;20865;43.312;27.152;2023-02-16T04:06:41;101915.33;;;4.14;38.27
34658;BME280;20865;43.312;27.152;2023-02-16T04:09:09;101912.23;;;4.13;38.13
34658;BME280;20865;43.312;27.152;2023-02-16T04:11:36;101909.61;;;4.14;38.21
34658;BME280;20865;43.312;27.152;2023-02-16T04:14:22;101914.52;;;4.16;37.99
34658;BME280;20865;43.312;27.152;2023-02-16T04:16:49;101907.81;;;4.12;38.28
34658;BME280;20865;43.312;27.152;2023-02-16T04:19:17;101916.29;;;4.17;38.44
34658;BME280;20865;43.312;27.152;2023-02-16T04:21:44;101913.27;;;4.19;38.57
34658;BME280;20865;43.312;27.152;2023-02-16T04:24:12;101911.52;;;4.21;39.04
34658;BME280;20865;43.312;27.152;2023-02-16T04:26:40;101919.08;;;4.23;39.15
34658;BME280;20865;43.312;27.152;2023-02-16T04:29:07;101910.25;;;4.23;38.66
34658;BME280;20865;43.312;27.152;2023-02-16T04:31:35;101911.52;;;4.21;37.82
34658;BME280;20865;43.312;27.152;2023-02-16T04:34:03;101913.05;;;4.10;37.21
34658;BME280;20865;43.312;27.152;2023-02-16T04:36:30;101927.08;;;4.06;37.47
34658;BME280;20865;43.312;27.152;2023-02-16T04:38:59;101928.42;;;4.08;37.51
34658;BME280;20865;43.312;27.152;2023-02-16T04:41:27;101928.83;;;4.05;37.73
34658;BME280;20865;43.312;27.152;2023-02-16T04:43:55;101929.65;;;4.03;37.65
34658;BME280;20865;43.312;27.152;2023-02-16T04:46:22;101931.71;;;3.97;37.74
34658;BME280;20865;43.312;27.152;2023-02-16T04:48:50;101933.90;;;3.96;37.79
34658;BME280;20865;43.312;27.152;2023-02-16T04:51:17;101937.36;;;3.94;38.05
34658;BME280;20865;43.312;27.152;2023-02-16T04:53:45;101934.24;;;3.91;37.91
34658;BME280;20865;43.312;27.152;2023-02-16T04:56:13;101928.95;;;3.91;37.52
34658;BME280;20865;43.312;27.152;2023-02-16T04:58:41;101937.63;;;3.86;37.28
34658;BME280;20865;43.312;27.152;2023-02-16T05:01:16;101948.99;;;3.81;37.26
34658;BME280;20865;43.312;27.152;2023-02-16T05:03:38;101944.92;;;3.77;37.63
34658;BME280;20865;43.312;27.152;2023-02-16T05:06:05;101944.88;;;3.75;37.67
34658;BME280;20865;43.312;27.152;2023-02-16T05:08:33;101947.49;;;3.74;37.93
34658;BME280;20865;43.312;27.152;2023-02-16T05:11:00;101949.20;;;3.72;38.15
34658;BME280;20865;43.312;27.152;2023-02-16T05:13:46;101952.43;;;3.77;37.72
34658;BME280;20865;43.312;27.152;2023-02-16T05:16:31;101955.37;;;3.72;37.60
34658;BME280;20865;43.312;27.152;2023-02-16T05:18:59;101950.95;;;3.71;37.64
34658;BME280;20865;43.312;27.152;2023-02-16T05:21:27;101957.84;;;3.65;37.67
34658;BME280;20865;43.312;27.152;2023-02-16T05:23:59;101957.33;;;3.62;37.57
34658;BME280;20865;43.312;27.152;2023-02-16T05:26:28;101957.73;;;3.60;37.59
34658;BME280;20865;43.312;27.152;2023-02-16T05:28:56;101964.36;;;3.62;36.94
34658;BME280;20865;43.312;27.152;2023-02-16T05:31:25;101959.43;;;3.58;37.27
34658;BME280;20865;43.312;27.152;2023-02-16T05:33:53;101960.75;;;3.58;37.61
34658;BME280;20865;43.312;27.152;2023-02-16T05:36:21;101972.55;;;3.72;37.73
34658;BME280;20865;43.312;27.152;2023-02-16T05:38:50;101966.35;;;4.69;36.79
34658;BME280;20865;43.312;27.152;2023-02-16T05:41:17;101971.28;;;5.95;34.96
34658;BME280;20865;43.312;27.152;2023-02-16T05:43:57;101972.33;;;7.10;33.48
34658;BME280;20865;43.312;27.152;2023-02-16T05:46:26;101975.48;;;8.21;31.67
34658;BME280;20865;43.312;27.152;2023-02-16T05:48:54;101973.26;;;9.27;29.99
34658;BME280;20865;43.312;27.152;2023-02-16T05:51:22;101980.36;;;10.21;28.67
34658;BME280;20865;43.312;27.152;2023-02-16T05:53:49;101973.94;;;10.91;27.65
34658;BME280;20865;43.312;27.152;2023-02-16T05:56:18;101981.75;;;11.30;26.88
34658;BME280;20865;43.312;27.152;2023-02-16T05:58:47;101973.27;;;11.30;27.05
34658;BME280;20865;43.312;27.152;2023-02-16T06:01:15;101972.47;;;11.11;27.43
34658;BME280;20865;43.312;27.152;2023-02-16T06:03:42;101989.51;;;10.93;27.89
34658;BME280;20865;43.312;27.152;2023-02-16T06:06:11;101981.11;;;10.77;28.25
34658;BME280;20865;43.312;27.152;2023-02-16T06:08:39;101991.88;;;10.59;28.61
34658;BME280;20865;43.312;27.152;2023-02-16T06:11:07;101988.80;;;10.45;29.10
34658;BME280;20865;43.312;27.152;2023-02-16T06:13:36;101989.28;;;10.31;29.19
34658;BME280;20865;43.312;27.152;2023-02-16T06:16:04;101995.52;;;10.19;29.94
34658;BME280;20865;43.312;27.152;2023-02-16T06:18:32;101989.28;;;10.14;30.27
34658;BME280;20865;43.312;27.152;2023-02-16T06:20:59;101989.30;;;10.16;30.48
34658;BME280;20865;43.312;27.152;2023-02-16T06:23:27;101994.19;;;10.19;30.45
34658;BME280;20865;43.312;27.152;2023-02-16T06:25:55;101995.97;;;10.22;30.75
34658;BME280;20865;43.312;27.152;2023-02-16T06:28:22;102000.42;;;10.31;30.79
34658;BME280;20865;43.312;27.152;2023-02-16T06:30:50;101995.50;;;10.38;31.09
34658;BME280;20865;43.312;27.152;2023-02-16T06:33:17;101993.70;;;10.51;31.16
34658;BME280;20865;43.312;27.152;2023-02-16T06:35:45;101988.77;;;10.61;31.04
34658;BME280;20865;43.312;27.152;2023-02-16T06:38:13;101999.41;;;10.70;31.44
34658;BME280;20865;43.312;27.152;2023-02-16T06:40:40;101991.34;;;10.81;31.60
34658;BME280;20865;43.312;27.152;2023-02-16T06:43:08;101999.34;;;10.91;31.49
34658;BME280;20865;43.312;27.152;2023-02-16T06:45:35;102001.50;;;11.06;31.61
34658;BME280;20865;43.312;27.152;2023-02-16T06:48:03;101997.86;;;11.17;31.30
34658;BME280;20865;43.312;27.152;2023-02-16T06:50:31;101993.79;;;11.25;31.49
34658;BME280;20865;43.312;27.152;2023-02-16T06:52:58;101991.09;;;11.31;31.64
34658;BME280;20865;43.312;27.152;2023-02-16T06:55:26;101995.92;;;11.39;31.92
34658;BME280;20865;43.312;27.152;2023-02-16T06:57:54;101994.08;;;11.49;32.35
34658;BME280;20865;43.312;27.152;2023-02-16T07:00:21;101993.51;;;11.66;32.19
34658;BME280;20865;43.312;27.152;2023-02-16T07:02:49;101984.48;;;11.80;32.01
34658;BME280;20865;43.312;27.152;2023-02-16T07:05:17;101983.08;;;11.90;31.99
34658;BME280;20865;43.312;27.152;2023-02-16T07:07:45;101984.37;;;11.97;32.31
34658;BME280;20865;43.312;27.152;2023-02-16T07:10:12;101977.88;;;12.19;32.25
34658;BME280;20865;43.312;27.152;2023-02-16T07:12:40;101971.19;;;12.21;32.63
34658;BME280;20865;43.312;27.152;2023-02-16T07:15:08;101970.58;;;12.33;32.47
34658;BME280;20865;43.312;27.152;2023-02-16T07:17:36;101972.59;;;12.54;32.17
34658;BME280;20865;43.312;27.152;2023-02-16T07:20:04;101963.17;;;12.57;32.58
34658;BME280;20865;43.312;27.152;2023-02-16T07:22:34;101964.38;;;12.68;32.96
34658;BME280;20865;43.312;27.152;2023-02-16T07:25:01;101959.37;;;12.75;32.93
34658;BME280;20865;43.312;27.152;2023-02-16T07:27:29;101955.63;;;12.86;33.25
34658;BME280;20865;43.312;27.152;2023-02-16T07:29:58;101952.87;;;12.94;33.25
34658;BME280;20865;43.312;27.152;2023-02-16T07:32:27;101948.73;;;13.02;33.45
34658;BME280;20865;43.312;27.152;2023-02-16T07:34:55;101953.86;;;13.19;33.51
34658;BME280;20865;43.312;27.152;2023-02-16T07:37:22;101950.55;;;13.31;33.14
34658;BME280;20865;43.312;27.152;2023-02-16T07:39:50;101945.33;;;13.51;33.42
34658;BME280;20865;43.312;27.152;2023-02-16T07:42:19;101947.83;;;13.62;33.25
34658;BME280;20865;43.312;27.152;2023-02-16T07:44:47;101937.00;;;13.68;33.56
34658;BME280;20865;43.312;27.152;2023-02-16T07:47:15;101935.73;;;13.89;33.70
34658;BME280;20865;43.312;27.152;2023-02-16T07:49:43;101936.05;;;13.96;33.48
34658;BME280;20865;43.312;27.152;2023-02-16T07:52:10;101937.50;;;14.14;33.36
34658;BME280;20865;43.312;27.152;2023-02-16T07:54:38;101940.28;;;14.32;33.24
34658;BME280;20865;43.312;27.152;2023-02-16T07:57:06;101934.70;;;14.42;33.22
34658;BME280;20865;43.312;27.152;2023-02-16T07:59:34;101934.03;;;14.55;33.13
34658;BME280;20865;43.312;27.152;2023-02-16T08:02:01;101930.58;;;14.69;32.81
34658;BME280;20865;43.312;27.152;2023-02-16T08:04:29;101931.74;;;14.79;32.90
34658;BME280;20865;43.312;27.152;2023-02-16T08:06:57;101930.75;;;14.83;32.83
34658;BME280;20865;43.312;27.152;2023-02-16T08:09:25;101931.97;;;14.89;32.83
34658;BME280;20865;43.312;27.152;2023-02-16T08:11:52;101930.27;;;15.04;32.41
34658;BME280;20865;43.312;27.152;2023-02-16T08:14:20;101928.31;;;15.11;32.42
34658;BME280;20865;43.312;27.152;2023-02-16T08:16:47;101929.36;;;15.23;32.28
34658;BME280;20865;43.312;27.152;2023-02-16T08:19:15;101930.70;;;15.42;32.41
34658;BME280;20865;43.312;27.152;2023-02-16T08:21:42;101923.43;;;15.46;31.96
34658;BME280;20865;43.312;27.152;2023-02-16T08:24:12;101930.30;;;15.58;32.72
34658;BME280;20865;43.312;27.152;2023-02-16T08:26:41;101921.22;;;15.62;32.42
34658;BME280;20865;43.312;27.152;2023-02-16T08:29:10;101921.50;;;15.70;32.85
34658;BME280;20865;43.312;27.152;2023-02-16T08:31:43;101922.88;;;15.87;32.50
34658;BME280;20865;43.312;27.152;2023-02-16T08:34:13;101916.20;;;16.00;32.39
34658;BME280;20865;43.312;27.152;2023-02-16T08:36:42;101916.04;;;16.06;32.32
34658;BME280;20865;43.312;27.152;2023-02-16T08:39:16;101909.99;;;16.14;31.98
34658;BME280;20865;43.312;27.152;2023-02-16T08:41:46;101911.13;;;16.22;32.15
34658;BME280;20865;43.312;27.152;2023-02-16T08:44:15;101917.00;;;16.36;32.27
34658;BME280;20865;43.312;27.152;2023-02-16T08:46:44;101907.66;;;16.48;32.18
34658;BME280;20865;43.312;27.152;2023-02-16T08:49:15;101912.88;;;16.54;32.07
34658;BME280;20865;43.312;27.152;2023-02-16T08:51:53;101905.88;;;16.63;31.56
34658;BME280;20865;43.312;27.152;2023-02-16T08:54:25;101905.52;;;16.76;31.63
34658;BME280;20865;43.312;27.152;2023-02-16T08:56:56;101909.23;;;16.86;31.35
34658;BME280;20865;43.312;27.152;2023-02-16T08:59:25;101902.53;;;17.00;31.37
34658;BME280;20865;43.312;27.152;2023-02-16T09:01:53;101903.73;;;17.04;30.95
34658;BME280;20865;43.312;27.152;2023-02-16T09:04:21;101907.08;;;17.12;30.99
34658;BME280;20865;43.312;27.152;2023-02-16T09:06:50;101899.73;;;17.31;30.83
34658;BME280;20865;43.312;27.152;2023-02-16T09:09:19;101901.92;;;17.33;31.17
34658;BME280;20865;43.312;27.152;2023-02-16T09:11:47;101901.91;;;17.46;30.79
34658;BME280;20865;43.312;27.152;2023-02-16T09:14:17;101903.43;;;17.55;30.75
34658;BME280;20865;43.312;27.152;2023-02-16T09:16:45;101900.86;;;17.63;30.58
34658;BME280;20865;43.312;27.152;2023-02-16T09:19:18;101896.91;;;17.74;30.57
34658;BME280;20865;43.312;27.152;2023-02-16T09:21:47;101894.73;;;17.85;30.71
34658;BME280;20865;43.312;27.152;2023-02-16T09:24:17;101892.04;;;17.85;30.28
34658;BME280;20865;43.312;27.152;2023-02-16T09:26:44;101890.05;;;18.03;29.84
34658;BME280;20865;43.312;27.152;2023-02-16T09:29:12;101885.60;;;18.14;29.65
34658;BME280;20865;43.312;27.152;2023-02-16T09:31:40;101884.17;;;18.16;28.73
34658;BME280;20865;43.312;27.152;2023-02-16T09:34:18;101877.56;;;18.24;29.60
34658;BME280;20865;43.312;27.152;2023-02-16T09:36:46;101872.73;;;18.32;28.82
34658;BME280;20865;43.312;27.152;2023-02-16T09:39:14;101868.08;;;18.48;28.60
34658;BME280;20865;43.312;27.152;2023-02-16T09:47:16;101861.38;;;18.58;28.15
34658;BME280;20865;43.312;27.152;2023-02-16T09:49:42;101866.04;;;18.66;28.03
34658;BME280;20865;43.312;27.152;2023-02-16T09:55:01;101857.24;;;18.73;27.97
34658;BME280;20865;43.312;27.152;2023-02-16T10:08:50;101842.84;;;18.94;28.07
34658;BME280;20865;43.312;27.152;2023-02-16T10:12:07;101841.00;;;18.95;27.24
34658;BME280;20865;43.312;27.152;2023-02-16T10:25:21;101823.91;;;19.37;27.59
34658;BME280;20865;43.312;27.152;2023-02-16T10:30:28;101815.86;;;19.35;27.17
34658;BME280;20865;43.312;27.152;2023-02-16T10:33:53;101815.38;;;19.36;27.69
34658;BME280;20865;43.312;27.152;2023-02-16T10:35:45;101809.63;;;19.43;27.55
34658;BME280;20865;43.312;27.152;2023-02-16T10:38:37;101803.64;;;19.56;27.26
34658;BME280;20865;43.312;27.152;2023-02-16T10:41:33;101805.44;;;19.57;27.39
34658;BME280;20865;43.312;27.152;2023-02-16T10:43:55;101795.38;;;19.70;27.28
34658;BME280;20865;43.312;27.152;2023-02-16T10:46:25;101797.25;;;19.79;26.83
34658;BME280;20865;43.312;27.152;2023-02-16T10:48:55;101794.27;;;19.74;27.45
34658;BME280;20865;43.312;27.152;2023-02-16T10:51:30;101792.61;;;19.91;27.00
34658;BME280;20865;43.312;27.152;2023-02-16T10:53:59;101790.73;;;19.83;27.26
34658;BME280;20865;43.312;27.152;2023-02-16T10:56:40;101789.33;;;19.74;26.85
34658;BME280;20865;43.312;27.152;2023-02-16T10:59:24;101787.68;;;19.49;26.71
34658;BME280;20865;43.312;27.152;2023-02-16T11:01:56;101778.67;;;19.69;27.35
34658;BME280;20865;43.312;27.152;2023-02-16T11:04:39;101779.55;;;19.70;26.90
34658;BME280;20865;43.312;27.152;2023-02-16T11:07:15;101769.91;;;19.83;26.09
34658;BME280;20865;43.312;27.152;2023-02-16T11:09:47;101766.38;;;20.02;26.86
34658;BME280;20865;43.312;27.152;2023-02-16T11:14:59;101763.55;;;20.13;26.52
34658;BME280;20865;43.312;27.152;2023-02-16T11:17:30;101756.13;;;20.27;26.33
34658;BME280;20865;43.312;27.152;2023-02-16T11:22:38;101745.55;;;20.21;26.32
34658;BME280;20865;43.312;27.152;2023-02-16T11:25:22;101742.37;;;20.40;26.29
34658;BME280;20865;43.312;27.152;2023-02-16T11:27:56;101745.67;;;20.47;26.02
34658;BME280;20865;43.312;27.152;2023-02-16T11:30:34;101745.58;;;20.49;24.85
34658;BME280;20865;43.312;27.152;2023-02-16T11:33:25;101736.78;;;20.54;24.46
34658;BME280;20865;43.312;27.152;2023-02-16T11:35:39;101733.55;;;20.35;24.96
34658;BME280;20865;43.312;27.152;2023-02-16T11:38:03;101735.66;;;20.20;24.39
34658;BME280;20865;43.312;27.152;2023-02-16T11:40:33;101733.55;;;20.35;24.55
34658;BME280;20865;43.312;27.152;2023-02-16T11:43:01;101728.86;;;20.39;24.99
34658;BME280;20865;43.312;27.152;2023-02-16T11:45:33;101724.20;;;20.32;24.78
34658;BME280;20865;43.312;27.152;2023-02-16T11:48:10;101720.03;;;20.44;23.92
34658;BME280;20865;43.312;27.152;2023-02-16T11:50:35;101713.77;;;20.52;23.51
34658;BME280;20865;43.312;27.152;2023-02-16T11:53:12;101709.55;;;20.55;24.11
34658;BME280;20865;43.312;27.152;2023-02-16T11:55:48;101703.58;;;20.66;23.82
34658;BME280;20865;43.312;27.152;2023-02-16T11:58:21;101697.52;;;20.69;22.35
34658;BME280;20865;43.312;27.152;2023-02-16T12:09:58;101682.49;;;20.71;21.37
34658;BME280;20865;43.312;27.152;2023-02-16T12:15:20;101676.67;;;20.70;20.85
34658;BME280;20865;43.312;27.152;2023-02-16T12:20:29;101667.74;;;20.68;20.56
34658;BME280;20865;43.312;27.152;2023-02-16T12:34:00;101652.23;;;20.61;21.47
34658;BME280;20865;43.312;27.152;2023-02-16T12:39:17;101649.59;;;20.51;20.98
34658;BME280;20865;43.312;27.152;2023-02-16T12:41:57;101638.75;;;20.50;20.26
34658;BME280;20865;43.312;27.152;2023-02-16T12:44:49;101633.78;;;20.51;19.36
34658;BME280;20865;43.312;27.152;2023-02-16T12:47:25;101633.39;;;20.58;19.03
34658;BME280;20865;43.312;27.152;2023-02-16T12:50:02;101633.30;;;20.60;19.93
34658;BME280;20865;43.312;27.152;2023-02-16T12:52:38;101629.86;;;20.56;19.62
34658;BME280;20865;43.312;27.152;2023-02-16T12:58:10;101629.14;;;20.53;19.95
34658;BME280;20865;43.312;27.152;2023-02-16T13:00:43;101622.72;;;20.45;20.02
34658;BME280;20865;43.312;27.152;2023-02-16T13:03:21;101629.80;;;20.39;20.38
34658;BME280;20865;43.312;27.152;2023-02-16T13:05:48;101618.89;;;20.40;20.58
34658;BME280;20865;43.312;27.152;2023-02-16T13:11:24;101620.54;;;20.43;20.50
34658;BME280;20865;43.312;27.152;2023-02-16T13:13:57;101616.47;;;20.34;20.53
34658;BME280;20865;43.312;27.152;2023-02-16T13:19:13;101608.63;;;20.28;21.10
34658;BME280;20865;43.312;27.152;2023-02-16T13:39:06;101591.30;;;20.22;20.86
34658;BME280;20865;43.312;27.152;2023-02-16T13:44:45;101591.30;;;20.13;20.99
34658;BME280;20865;43.312;27.152;2023-02-16T13:47:14;101580.59;;;20.10;20.96
34658;BME280;20865;43.312;27.152;2023-02-16T13:49:43;101576.81;;;20.04;20.98
34658;BME280;20865;43.312;27.152;2023-02-16T13:55:05;101576.52;;;20.02;21.16
34658;BME280;20865;43.312;27.152;2023-02-16T14:00:34;101565.81;;;19.98;21.06
34658;BME280;20865;43.312;27.152;2023-02-16T14:03:11;101563.45;;;19.91;21.27
34658;BME280;20865;43.312;27.152;2023-02-16T14:05:43;101565.05;;;19.86;20.70
34658;BME280;20865;43.312;27.152;2023-02-16T14:08:28;101553.56;;;19.81;20.70
34658;BME280;20865;43.312;27.152;2023-02-16T14:11:06;101556.75;;;19.81;20.24
34658;BME280;20865;43.312;27.152;2023-02-16T14:16:23;101557.00;;;19.66;20.04
34658;BME280;20865;43.312;27.152;2023-02-16T14:18:57;101554.23;;;19.57;20.03
34658;BME280;20865;43.312;27.152;2023-02-16T14:21:40;101552.69;;;19.51;20.25
34658;BME280;20865;43.312;27.152;2023-02-16T14:27:04;101542.75;;;19.42;20.86
34658;BME280;20865;43.312;27.152;2023-02-16T14:29:51;101546.09;;;19.38;21.05
34658;BME280;20865;43.312;27.152;2023-02-16T14:32:30;101543.07;;;19.36;21.52
34658;BME280;20865;43.312;27.152;2023-02-16T14:35:22;101541.52;;;19.30;20.84
34658;BME280;20865;43.312;27.152;2023-02-16T14:40:52;101530.65;;;19.21;21.02
34658;BME280;20865;43.312;27.152;2023-02-16T14:43:23;101524.95;;;19.17;21.28
34658;BME280;20865;43.312;27.152;2023-02-16T14:54:26;101521.70;;;18.90;21.16
34658;BME280;20865;43.312;27.152;2023-02-16T14:56:55;101519.13;;;18.87;21.57
34658;BME280;20865;43.312;27.152;2023-02-16T14:59:37;101515.34;;;18.81;21.57
34658;BME280;20865;43.312;27.152;2023-02-16T15:04:57;101521.16;;;18.72;21.72
34658;BME280;20865;43.312;27.152;2023-02-16T15:07:26;101519.51;;;18.68;21.70
34658;BME280;20865;43.312;27.152;2023-02-16T15:09:56;101528.33;;;18.63;21.79
34658;BME280;20865;43.312;27.152;2023-02-16T15:12:29;101517.23;;;18.59;22.01
34658;BME280;20865;43.312;27.152;2023-02-16T15:15:01;101514.80;;;18.52;22.13
34658;BME280;20865;43.312;27.152;2023-02-16T15:17:34;101518.59;;;18.48;22.30
34658;BME280;20865;43.312;27.152;2023-02-16T15:20:36;101512.83;;;18.46;22.39
34658;BME280;20865;43.312;27.152;2023-02-16T15:23:15;101522.51;;;18.41;22.60
34658;BME280;20865;43.312;27.152;2023-02-16T15:25:39;101525.59;;;18.32;22.62
34658;BME280;20865;43.312;27.152;2023-02-16T15:30:45;101520.91;;;18.15;23.08
34658;BME280;20865;43.312;27.152;2023-02-16T15:35:59;101517.51;;;18.00;23.40
34658;BME280;20865;43.312;27.152;2023-02-16T15:38:37;101522.01;;;17.89;23.49
34658;BME280;20865;43.312;27.152;2023-02-16T15:41:02;101510.73;;;17.78;23.41